Izoro, Texas
Current Conditions -  °F | °C
As of 2:15 PM on Monday 24 Nov 2014 (Local Time) from KGOP Reporting Station
Clear Clear  
Wind Chill: 61°   Ceiling: Unl
Heat Index: 61°   Visibility: 10mi
Dew Point: 27°   Wind: 5mph
Humidity: 27%   Direction: 330°NNW
Pressure: 30.08"   Gusts: NA
Location:  31.392°N, 97.7452°W
Report Text: KGOP 242015Z AUTO 33004KT 10SM CLR 16/M03 A3008 RMK AO2 PWINO
Loading
Personal Weather Stations






























Interactive Weather Map New forecast layout! Learn more

10-Day Weather Forecast

Advertisements
Track Severe Weather on mobile